sensor_id;sensor_type;location;lat;lon;timestamp;P1;durP1;ratioP1;P2;durP2;ratioP2
57327;SDS011;43162;51.040;18.244;2023-12-07T00:01:25;101.60;;;39.30;;
57327;SDS011;43162;51.040;18.244;2023-12-07T00:03:51;120.10;;;45.20;;
57327;SDS011;43162;51.040;18.244;2023-12-07T00:06:16;105.30;;;42.60;;
57327;SDS011;43162;51.040;18.244;2023-12-07T00:08:42;92.10;;;37.40;;
57327;SDS011;43162;51.040;18.244;2023-12-07T00:11:08;117.20;;;41.10;;
57327;SDS011;43162;51.040;18.244;2023-12-07T00:13:33;95.60;;;36.70;;
57327;SDS011;43162;51.040;18.244;2023-12-07T00:15:59;99.60;;;40.90;;
57327;SDS011;43162;51.040;18.244;2023-12-07T00:18:24;115.40;;;39.50;;
57327;SDS011;43162;51.040;18.244;2023-12-07T00:20:50;106.80;;;38.30;;
57327;SDS011;43162;51.040;18.244;2023-12-07T00:23:15;93.60;;;37.10;;
57327;SDS011;43162;51.040;18.244;2023-12-07T00:25:41;73.20;;;30.70;;
57327;SDS011;43162;51.040;18.244;2023-12-07T00:28:06;104.10;;;39.40;;
57327;SDS011;43162;51.040;18.244;2023-12-07T00:30:32;70.30;;;30.80;;
57327;SDS011;43162;51.040;18.244;2023-12-07T00:32:59;84.70;;;32.00;;
57327;SDS011;43162;51.040;18.244;2023-12-07T00:35:25;87.60;;;34.50;;
57327;SDS011;43162;51.040;18.244;2023-12-07T00:37:54;84.20;;;34.30;;
57327;SDS011;43162;51.040;18.244;2023-12-07T00:40:21;83.70;;;31.60;;
57327;SDS011;43162;51.040;18.244;2023-12-07T00:42:47;94.10;;;35.10;;
57327;SDS011;43162;51.040;18.244;2023-12-07T00:45:13;79.20;;;31.50;;
57327;SDS011;43162;51.040;18.244;2023-12-07T00:47:39;96.50;;;36.40;;
57327;SDS011;43162;51.040;18.244;2023-12-07T00:50:05;92.40;;;32.80;;
57327;SDS011;43162;51.040;18.244;2023-12-07T00:52:31;87.50;;;34.40;;
57327;SDS011;43162;51.040;18.244;2023-12-07T00:54:57;73.80;;;34.00;;
57327;SDS011;43162;51.040;18.244;2023-12-07T00:57:23;90.90;;;36.30;;
57327;SDS011;43162;51.040;18.244;2023-12-07T00:59:49;81.20;;;33.70;;
57327;SDS011;43162;51.040;18.244;2023-12-07T01:02:14;86.90;;;35.50;;
57327;SDS011;43162;51.040;18.244;2023-12-07T01:04:40;67.50;;;26.10;;
57327;SDS011;43162;51.040;18.244;2023-12-07T01:07:05;85.70;;;35.20;;
57327;SDS011;43162;51.040;18.244;2023-12-07T01:09:31;95.40;;;33.60;;
57327;SDS011;43162;51.040;18.244;2023-12-07T01:11:56;104.20;;;39.60;;
57327;SDS011;43162;51.040;18.244;2023-12-07T01:14:23;105.50;;;40.70;;
57327;SDS011;43162;51.040;18.244;2023-12-07T01:16:49;81.50;;;32.80;;
57327;SDS011;43162;51.040;18.244;2023-12-07T01:19:14;92.40;;;35.30;;
57327;SDS011;43162;51.040;18.244;2023-12-07T01:21:40;96.40;;;36.50;;
57327;SDS011;43162;51.040;18.244;2023-12-07T01:24:07;93.90;;;36.90;;
57327;SDS011;43162;51.040;18.244;2023-12-07T01:26:32;91.90;;;37.80;;
57327;SDS011;43162;51.040;18.244;2023-12-07T01:28:58;99.90;;;39.60;;
57327;SDS011;43162;51.040;18.244;2023-12-07T01:31:24;96.10;;;36.60;;
57327;SDS011;43162;51.040;18.244;2023-12-07T01:33:49;96.00;;;36.20;;
57327;SDS011;43162;51.040;18.244;2023-12-07T01:36:14;78.70;;;31.60;;
57327;SDS011;43162;51.040;18.244;2023-12-07T01:38:40;93.60;;;35.10;;
57327;SDS011;43162;51.040;18.244;2023-12-07T01:41:06;88.00;;;34.70;;
57327;SDS011;43162;51.040;18.244;2023-12-07T01:43:31;95.50;;;35.00;;
57327;SDS011;43162;51.040;18.244;2023-12-07T01:45:57;60.60;;;27.00;;
57327;SDS011;43162;51.040;18.244;2023-12-07T01:48:23;96.40;;;38.90;;
57327;SDS011;43162;51.040;18.244;2023-12-07T01:50:50;105.20;;;38.60;;
57327;SDS011;43162;51.040;18.244;2023-12-07T01:53:16;84.70;;;35.20;;
57327;SDS011;43162;51.040;18.244;2023-12-07T01:55:42;78.70;;;31.80;;
57327;SDS011;43162;51.040;18.244;2023-12-07T01:58:08;99.70;;;37.50;;
57327;SDS011;43162;51.040;18.244;2023-12-07T02:00:34;100.00;;;37.00;;
57327;SDS011;43162;51.040;18.244;2023-12-07T02:03:00;93.10;;;38.00;;
57327;SDS011;43162;51.040;18.244;2023-12-07T02:05:28;92.80;;;37.00;;
57327;SDS011;43162;51.040;18.244;2023-12-07T02:07:54;102.00;;;36.50;;
57327;SDS011;43162;51.040;18.244;2023-12-07T02:10:19;102.30;;;37.60;;
57327;SDS011;43162;51.040;18.244;2023-12-07T02:12:45;98.30;;;38.40;;
57327;SDS011;43162;51.040;18.244;2023-12-07T02:15:12;98.70;;;39.60;;
57327;SDS011;43162;51.040;18.244;2023-12-07T02:23:03;100.10;;;35.50;;
57327;SDS011;43162;51.040;18.244;2023-12-07T02:25:36;100.40;;;36.60;;
57327;SDS011;43162;51.040;18.244;2023-12-07T02:28:43;95.10;;;36.80;;
57327;SDS011;43162;51.040;18.244;2023-12-07T02:31:08;94.30;;;37.50;;
57327;SDS011;43162;51.040;18.244;2023-12-07T02:33:34;84.60;;;36.30;;
57327;SDS011;43162;51.040;18.244;2023-12-07T02:35:59;89.80;;;35.10;;
57327;SDS011;43162;51.040;18.244;2023-12-07T02:38:26;99.90;;;36.80;;
57327;SDS011;43162;51.040;18.244;2023-12-07T02:40:53;97.20;;;37.20;;
57327;SDS011;43162;51.040;18.244;2023-12-07T02:43:19;84.00;;;33.40;;
57327;SDS011;43162;51.040;18.244;2023-12-07T02:45:45;99.10;;;35.30;;
57327;SDS011;43162;51.040;18.244;2023-12-07T02:48:11;86.20;;;32.70;;
57327;SDS011;43162;51.040;18.244;2023-12-07T02:50:36;92.60;;;34.70;;
57327;SDS011;43162;51.040;18.244;2023-12-07T02:53:02;87.50;;;36.80;;
57327;SDS011;43162;51.040;18.244;2023-12-07T02:55:27;85.70;;;33.90;;
57327;SDS011;43162;51.040;18.244;2023-12-07T02:57:52;95.50;;;35.60;;
57327;SDS011;43162;51.040;18.244;2023-12-07T03:00:18;94.50;;;34.50;;
57327;SDS011;43162;51.040;18.244;2023-12-07T03:02:43;85.80;;;33.70;;
57327;SDS011;43162;51.040;18.244;2023-12-07T03:05:09;90.90;;;35.60;;
57327;SDS011;43162;51.040;18.244;2023-12-07T03:07:34;75.80;;;29.20;;
57327;SDS011;43162;51.040;18.244;2023-12-07T03:10:00;91.70;;;34.00;;
57327;SDS011;43162;51.040;18.244;2023-12-07T03:12:26;79.10;;;32.20;;
57327;SDS011;43162;51.040;18.244;2023-12-07T03:14:51;86.50;;;32.50;;
57327;SDS011;43162;51.040;18.244;2023-12-07T03:17:17;88.20;;;32.30;;
57327;SDS011;43162;51.040;18.244;2023-12-07T03:19:42;84.80;;;32.80;;
57327;SDS011;43162;51.040;18.244;2023-12-07T03:22:08;75.70;;;32.40;;
57327;SDS011;43162;51.040;18.244;2023-12-07T03:24:34;78.50;;;30.70;;
57327;SDS011;43162;51.040;18.244;2023-12-07T03:27:01;82.50;;;31.20;;
57327;SDS011;43162;51.040;18.244;2023-12-07T03:29:27;81.40;;;30.40;;
57327;SDS011;43162;51.040;18.244;2023-12-07T03:31:53;89.10;;;33.00;;
57327;SDS011;43162;51.040;18.244;2023-12-07T03:34:18;89.80;;;32.90;;
57327;SDS011;43162;51.040;18.244;2023-12-07T03:36:47;86.70;;;31.70;;
57327;SDS011;43162;51.040;18.244;2023-12-07T03:39:14;91.30;;;36.00;;
57327;SDS011;43162;51.040;18.244;2023-12-07T03:41:40;97.60;;;34.30;;
57327;SDS011;43162;51.040;18.244;2023-12-07T03:44:05;86.90;;;32.80;;
57327;SDS011;43162;51.040;18.244;2023-12-07T03:46:31;84.20;;;32.90;;
57327;SDS011;43162;51.040;18.244;2023-12-07T03:48:57;85.20;;;33.80;;
57327;SDS011;43162;51.040;18.244;2023-12-07T03:51:22;70.00;;;27.20;;
57327;SDS011;43162;51.040;18.244;2023-12-07T03:53:47;80.60;;;30.50;;
57327;SDS011;43162;51.040;18.244;2023-12-07T03:56:29;80.70;;;31.20;;
57327;SDS011;43162;51.040;18.244;2023-12-07T03:58:56;95.80;;;34.60;;
57327;SDS011;43162;51.040;18.244;2023-12-07T04:01:25;76.50;;;31.20;;
57327;SDS011;43162;51.040;18.244;2023-12-07T04:03:53;88.90;;;32.90;;
57327;SDS011;43162;51.040;18.244;2023-12-07T04:06:23;86.50;;;32.90;;
57327;SDS011;43162;51.040;18.244;2023-12-07T04:08:49;90.90;;;32.40;;
57327;SDS011;43162;51.040;18.244;2023-12-07T04:11:15;78.20;;;29.60;;
57327;SDS011;43162;51.040;18.244;2023-12-07T04:13:41;83.10;;;31.70;;
57327;SDS011;43162;51.040;18.244;2023-12-07T04:16:07;85.90;;;30.60;;
57327;SDS011;43162;51.040;18.244;2023-12-07T04:18:33;83.60;;;32.00;;
57327;SDS011;43162;51.040;18.244;2023-12-07T04:20:58;82.60;;;31.90;;
57327;SDS011;43162;51.040;18.244;2023-12-07T04:23:24;88.80;;;33.20;;
57327;SDS011;43162;51.040;18.244;2023-12-07T04:25:50;86.20;;;31.00;;
57327;SDS011;43162;51.040;18.244;2023-12-07T04:28:15;96.50;;;34.20;;
57327;SDS011;43162;51.040;18.244;2023-12-07T04:30:41;86.40;;;30.70;;
57327;SDS011;43162;51.040;18.244;2023-12-07T04:33:06;82.50;;;31.20;;
57327;SDS011;43162;51.040;18.244;2023-12-07T04:35:32;95.50;;;33.60;;
57327;SDS011;43162;51.040;18.244;2023-12-07T04:37:57;80.20;;;31.40;;
57327;SDS011;43162;51.040;18.244;2023-12-07T04:40:24;75.20;;;29.80;;
57327;SDS011;43162;51.040;18.244;2023-12-07T04:42:50;78.30;;;30.10;;
57327;SDS011;43162;51.040;18.244;2023-12-07T04:45:16;97.80;;;38.00;;
57327;SDS011;43162;51.040;18.244;2023-12-07T04:47:41;78.40;;;31.70;;
57327;SDS011;43162;51.040;18.244;2023-12-07T04:50:07;81.30;;;31.70;;
57327;SDS011;43162;51.040;18.244;2023-12-07T04:52:33;72.20;;;29.40;;
57327;SDS011;43162;51.040;18.244;2023-12-07T04:54:59;76.00;;;28.40;;
57327;SDS011;43162;51.040;18.244;2023-12-07T04:57:24;76.10;;;29.20;;
57327;SDS011;43162;51.040;18.244;2023-12-07T04:59:50;70.50;;;27.90;;
57327;SDS011;43162;51.040;18.244;2023-12-07T05:02:16;77.10;;;30.60;;
57327;SDS011;43162;51.040;18.244;2023-12-07T05:04:42;85.20;;;33.90;;
57327;SDS011;43162;51.040;18.244;2023-12-07T05:07:08;108.60;;;39.70;;
57327;SDS011;43162;51.040;18.244;2023-12-07T05:09:34;92.30;;;36.30;;
57327;SDS011;43162;51.040;18.244;2023-12-07T05:12:00;101.20;;;37.50;;
57327;SDS011;43162;51.040;18.244;2023-12-07T05:14:26;98.50;;;36.50;;
57327;SDS011;43162;51.040;18.244;2023-12-07T05:16:52;85.00;;;35.00;;
57327;SDS011;43162;51.040;18.244;2023-12-07T05:19:19;88.20;;;35.30;;
57327;SDS011;43162;51.040;18.244;2023-12-07T05:21:46;98.80;;;36.90;;
57327;SDS011;43162;51.040;18.244;2023-12-07T05:24:12;91.00;;;35.60;;
57327;SDS011;43162;51.040;18.244;2023-12-07T05:26:40;89.00;;;35.80;;
57327;SDS011;43162;51.040;18.244;2023-12-07T05:29:06;73.70;;;31.80;;
57327;SDS011;43162;51.040;18.244;2023-12-07T05:31:32;80.30;;;32.70;;
57327;SDS011;43162;51.040;18.244;2023-12-07T05:33:58;79.30;;;28.70;;
57327;SDS011;43162;51.040;18.244;2023-12-07T05:36:23;70.20;;;28.60;;
57327;SDS011;43162;51.040;18.244;2023-12-07T05:38:49;73.70;;;29.90;;
57327;SDS011;43162;51.040;18.244;2023-12-07T05:41:14;74.00;;;27.00;;
57327;SDS011;43162;51.040;18.244;2023-12-07T05:43:40;77.80;;;27.70;;
57327;SDS011;43162;51.040;18.244;2023-12-07T05:46:07;82.10;;;31.10;;
57327;SDS011;43162;51.040;18.244;2023-12-07T05:48:33;78.70;;;30.10;;
57327;SDS011;43162;51.040;18.244;2023-12-07T05:50:58;80.80;;;28.20;;
57327;SDS011;43162;51.040;18.244;2023-12-07T05:53:24;73.20;;;27.50;;
57327;SDS011;43162;51.040;18.244;2023-12-07T05:55:50;72.90;;;30.00;;
57327;SDS011;43162;51.040;18.244;2023-12-07T05:58:15;76.80;;;29.30;;
57327;SDS011;43162;51.040;18.244;2023-12-07T06:00:43;73.10;;;28.30;;
57327;SDS011;43162;51.040;18.244;2023-12-07T06:03:09;77.20;;;28.20;;
57327;SDS011;43162;51.040;18.244;2023-12-07T06:05:37;78.70;;;27.60;;
57327;SDS011;43162;51.040;18.244;2023-12-07T06:08:03;76.60;;;27.70;;
57327;SDS011;43162;51.040;18.244;2023-12-07T06:10:29;75.50;;;27.70;;
57327;SDS011;43162;51.040;18.244;2023-12-07T06:12:55;90.10;;;31.00;;
57327;SDS011;43162;51.040;18.244;2023-12-07T06:15:23;90.80;;;32.70;;
57327;SDS011;43162;51.040;18.244;2023-12-07T06:17:49;87.50;;;33.40;;
57327;SDS011;43162;51.040;18.244;2023-12-07T06:20:14;98.60;;;34.10;;
57327;SDS011;43162;51.040;18.244;2023-12-07T06:22:40;86.60;;;30.20;;
57327;SDS011;43162;51.040;18.244;2023-12-07T06:25:06;85.60;;;34.60;;
57327;SDS011;43162;51.040;18.244;2023-12-07T06:27:37;99.40;;;37.10;;
57327;SDS011;43162;51.040;18.244;2023-12-07T06:30:03;100.40;;;37.90;;
57327;SDS011;43162;51.040;18.244;2023-12-07T06:32:33;98.90;;;36.00;;
57327;SDS011;43162;51.040;18.244;2023-12-07T06:34:59;96.80;;;36.90;;
57327;SDS011;43162;51.040;18.244;2023-12-07T06:37:25;84.90;;;32.60;;
57327;SDS011;43162;51.040;18.244;2023-12-07T06:39:51;99.00;;;35.30;;
57327;SDS011;43162;51.040;18.244;2023-12-07T06:42:17;108.90;;;39.70;;
57327;SDS011;43162;51.040;18.244;2023-12-07T06:44:43;110.00;;;42.20;;
57327;SDS011;43162;51.040;18.244;2023-12-07T06:47:08;105.60;;;39.20;;
57327;SDS011;43162;51.040;18.244;2023-12-07T06:49:34;98.40;;;39.30;;
57327;SDS011;43162;51.040;18.244;2023-12-07T06:52:01;86.30;;;33.50;;
57327;SDS011;43162;51.040;18.244;2023-12-07T06:54:26;99.40;;;35.70;;
57327;SDS011;43162;51.040;18.244;2023-12-07T06:56:52;105.70;;;37.00;;
57327;SDS011;43162;51.040;18.244;2023-12-07T06:59:19;103.40;;;42.00;;
57327;SDS011;43162;51.040;18.244;2023-12-07T07:01:45;145.20;;;56.50;;
57327;SDS011;43162;51.040;18.244;2023-12-07T07:04:10;149.30;;;58.20;;
57327;SDS011;43162;51.040;18.244;2023-12-07T07:06:37;219.80;;;88.90;;
57327;SDS011;43162;51.040;18.244;2023-12-07T07:09:03;166.50;;;63.10;;
57327;SDS011;43162;51.040;18.244;2023-12-07T07:11:30;98.60;;;38.50;;
57327;SDS011;43162;51.040;18.244;2023-12-07T07:13:55;111.30;;;40.80;;
57327;SDS011;43162;51.040;18.244;2023-12-07T07:16:21;107.10;;;41.60;;
57327;SDS011;43162;51.040;18.244;2023-12-07T07:18:46;126.00;;;42.00;;
57327;SDS011;43162;51.040;18.244;2023-12-07T07:21:12;103.90;;;39.30;;
57327;SDS011;43162;51.040;18.244;2023-12-07T07:23:38;120.50;;;43.30;;
57327;SDS011;43162;51.040;18.244;2023-12-07T07:26:03;133.60;;;44.60;;
57327;SDS011;43162;51.040;18.244;2023-12-07T07:28:29;133.00;;;44.00;;
57327;SDS011;43162;51.040;18.244;2023-12-07T07:30:55;105.90;;;39.40;;
57327;SDS011;43162;51.040;18.244;2023-12-07T07:33:20;116.80;;;38.50;;
57327;SDS011;43162;51.040;18.244;2023-12-07T07:35:46;99.50;;;36.70;;
57327;SDS011;43162;51.040;18.244;2023-12-07T07:38:12;91.60;;;37.20;;
57327;SDS011;43162;51.040;18.244;2023-12-07T07:40:37;118.10;;;42.40;;
57327;SDS011;43162;51.040;18.244;2023-12-07T07:43:03;117.60;;;41.30;;
57327;SDS011;43162;51.040;18.244;2023-12-07T07:45:28;127.10;;;43.50;;
57327;SDS011;43162;51.040;18.244;2023-12-07T07:47:54;128.00;;;45.10;;
57327;SDS011;43162;51.040;18.244;2023-12-07T07:50:20;106.70;;;41.80;;
57327;SDS011;43162;51.040;18.244;2023-12-07T07:52:46;104.90;;;41.20;;
57327;SDS011;43162;51.040;18.244;2023-12-07T07:55:11;106.30;;;42.70;;
57327;SDS011;43162;51.040;18.244;2023-12-07T07:57:37;113.20;;;44.50;;
57327;SDS011;43162;51.040;18.244;2023-12-07T08:02:34;137.90;;;51.20;;
57327;SDS011;43162;51.040;18.244;2023-12-07T08:05:01;110.00;;;43.00;;
57327;SDS011;43162;51.040;18.244;2023-12-07T08:07:27;124.50;;;48.00;;
57327;SDS011;43162;51.040;18.244;2023-12-07T08:09:52;130.80;;;52.90;;
57327;SDS011;43162;51.040;18.244;2023-12-07T08:12:18;125.30;;;50.90;;
57327;SDS011;43162;51.040;18.244;2023-12-07T08:14:44;109.70;;;44.70;;
57327;SDS011;43162;51.040;18.244;2023-12-07T08:17:13;91.40;;;37.60;;
57327;SDS011;43162;51.040;18.244;2023-12-07T08:19:39;91.60;;;35.20;;
57327;SDS011;43162;51.040;18.244;2023-12-07T08:22:07;93.70;;;36.30;;
57327;SDS011;43162;51.040;18.244;2023-12-07T08:24:33;83.90;;;35.10;;
57327;SDS011;43162;51.040;18.244;2023-12-07T08:26:59;105.20;;;42.10;;
57327;SDS011;43162;51.040;18.244;2023-12-07T08:29:25;91.60;;;39.30;;
57327;SDS011;43162;51.040;18.244;2023-12-07T08:31:50;103.70;;;39.80;;
57327;SDS011;43162;51.040;18.244;2023-12-07T08:34:16;103.40;;;41.70;;
57327;SDS011;43162;51.040;18.244;2023-12-07T08:36:42;111.60;;;44.70;;
57327;SDS011;43162;51.040;18.244;2023-12-07T08:39:07;111.60;;;44.20;;
57327;SDS011;43162;51.040;18.244;2023-12-07T08:41:35;110.20;;;42.00;;
57327;SDS011;43162;51.040;18.244;2023-12-07T08:44:04;127.80;;;47.10;;
57327;SDS011;43162;51.040;18.244;2023-12-07T08:46:30;136.90;;;53.40;;
57327;SDS011;43162;51.040;18.244;2023-12-07T08:48:56;111.90;;;44.40;;
57327;SDS011;43162;51.040;18.244;2023-12-07T08:51:22;88.80;;;37.60;;
57327;SDS011;43162;51.040;18.244;2023-12-07T08:53:49;95.90;;;38.00;;
57327;SDS011;43162;51.040;18.244;2023-12-07T08:56:17;95.80;;;36.70;;
57327;SDS011;43162;51.040;18.244;2023-12-07T08:58:43;98.90;;;38.60;;
57327;SDS011;43162;51.040;18.244;2023-12-07T09:01:09;98.50;;;41.50;;
57327;SDS011;43162;51.040;18.244;2023-12-07T09:03:36;92.50;;;40.10;;
57327;SDS011;43162;51.040;18.244;2023-12-07T09:06:02;98.20;;;40.70;;
57327;SDS011;43162;51.040;18.244;2023-12-07T09:08:28;101.70;;;41.30;;
57327;SDS011;43162;51.040;18.244;2023-12-07T09:10:54;94.00;;;40.60;;
57327;SDS011;43162;51.040;18.244;2023-12-07T09:13:20;99.20;;;39.40;;
57327;SDS011;43162;51.040;18.244;2023-12-07T09:15:45;103.80;;;39.90;;
57327;SDS011;43162;51.040;18.244;2023-12-07T09:18:11;101.60;;;39.80;;
57327;SDS011;43162;51.040;18.244;2023-12-07T09:20:37;105.40;;;43.30;;
57327;SDS011;43162;51.040;18.244;2023-12-07T09:23:03;100.90;;;43.80;;
57327;SDS011;43162;51.040;18.244;2023-12-07T09:25:30;108.30;;;42.40;;
57327;SDS011;43162;51.040;18.244;2023-12-07T09:27:56;100.60;;;40.30;;
57327;SDS011;43162;51.040;18.244;2023-12-07T09:30:22;100.80;;;39.20;;
57327;SDS011;43162;51.040;18.244;2023-12-07T09:32:47;102.80;;;41.50;;
57327;SDS011;43162;51.040;18.244;2023-12-07T09:35:13;98.60;;;38.90;;
57327;SDS011;43162;51.040;18.244;2023-12-07T09:37:41;103.00;;;39.40;;
57327;SDS011;43162;51.040;18.244;2023-12-07T09:40:07;102.80;;;42.30;;
57327;SDS011;43162;51.040;18.244;2023-12-07T09:42:33;97.80;;;40.20;;
57327;SDS011;43162;51.040;18.244;2023-12-07T09:44:58;103.90;;;40.70;;
57327;SDS011;43162;51.040;18.244;2023-12-07T09:47:27;96.30;;;39.00;;
57327;SDS011;43162;51.040;18.244;2023-12-07T09:49:54;95.70;;;39.50;;
57327;SDS011;43162;51.040;18.244;2023-12-07T09:52:20;103.40;;;41.10;;
57327;SDS011;43162;51.040;18.244;2023-12-07T09:54:47;98.70;;;39.20;;
57327;SDS011;43162;51.040;18.244;2023-12-07T09:57:14;93.70;;;37.70;;
57327;SDS011;43162;51.040;18.244;2023-12-07T09:59:41;99.90;;;40.40;;
57327;SDS011;43162;51.040;18.244;2023-12-07T10:02:07;97.60;;;39.30;;
57327;SDS011;43162;51.040;18.244;2023-12-07T10:04:35;99.40;;;40.10;;
57327;SDS011;43162;51.040;18.244;2023-12-07T10:07:01;94.10;;;38.90;;
57327;SDS011;43162;51.040;18.244;2023-12-07T10:09:27;95.50;;;39.00;;
57327;SDS011;43162;51.040;18.244;2023-12-07T10:12:02;103.70;;;41.00;;
57327;SDS011;43162;51.040;18.244;2023-12-07T10:14:28;85.80;;;34.10;;
57327;SDS011;43162;51.040;18.244;2023-12-07T10:16:55;90.20;;;37.40;;
57327;SDS011;43162;51.040;18.244;2023-12-07T10:19:21;87.50;;;35.80;;
57327;SDS011;43162;51.040;18.244;2023-12-07T10:21:50;97.30;;;40.10;;
57327;SDS011;43162;51.040;18.244;2023-12-07T10:24:17;89.00;;;39.20;;
57327;SDS011;43162;51.040;18.244;2023-12-07T10:26:44;99.10;;;40.50;;
57327;SDS011;43162;51.040;18.244;2023-12-07T10:29:11;90.80;;;39.50;;
57327;SDS011;43162;51.040;18.244;2023-12-07T10:31:37;101.70;;;38.30;;
57327;SDS011;43162;51.040;18.244;2023-12-07T10:34:03;99.10;;;39.40;;
57327;SDS011;43162;51.040;18.244;2023-12-07T10:36:30;87.20;;;36.40;;
57327;SDS011;43162;51.040;18.244;2023-12-07T10:38:56;87.80;;;37.60;;
57327;SDS011;43162;51.040;18.244;2023-12-07T10:41:23;87.90;;;37.50;;
57327;SDS011;43162;51.040;18.244;2023-12-07T10:43:51;93.10;;;36.50;;
57327;SDS011;43162;51.040;18.244;2023-12-07T10:46:19;90.60;;;36.20;;
57327;SDS011;43162;51.040;18.244;2023-12-07T10:48:47;91.30;;;39.30;;
57327;SDS011;43162;51.040;18.244;2023-12-07T10:51:34;95.10;;;38.70;;
57327;SDS011;43162;51.040;18.244;2023-12-07T10:54:39;91.40;;;36.60;;
57327;SDS011;43162;51.040;18.244;2023-12-07T10:57:10;91.10;;;36.00;;
57327;SDS011;43162;51.040;18.244;2023-12-07T10:59:36;97.30;;;40.20;;
57327;SDS011;43162;51.040;18.244;2023-12-07T11:02:02;93.40;;;40.50;;
57327;SDS011;43162;51.040;18.244;2023-12-07T11:04:29;98.70;;;39.20;;
57327;SDS011;43162;51.040;18.244;2023-12-07T11:06:54;91.40;;;39.20;;
57327;SDS011;43162;51.040;18.244;2023-12-07T11:09:24;89.90;;;36.60;;
57327;SDS011;43162;51.040;18.244;2023-12-07T11:11:57;92.50;;;38.00;;
57327;SDS011;43162;51.040;18.244;2023-12-07T11:14:26;97.60;;;37.80;;
57327;SDS011;43162;51.040;18.244;2023-12-07T11:16:53;87.90;;;36.30;;
57327;SDS011;43162;51.040;18.244;2023-12-07T11:22:08;93.70;;;37.10;;
57327;SDS011;43162;51.040;18.244;2023-12-07T11:24:36;100.80;;;40.10;;
57327;SDS011;43162;51.040;18.244;2023-12-07T11:27:02;111.70;;;43.10;;
57327;SDS011;43162;51.040;18.244;2023-12-07T11:29:28;108.30;;;44.10;;
57327;SDS011;43162;51.040;18.244;2023-12-07T11:32:04;105.60;;;43.90;;
57327;SDS011;43162;51.040;18.244;2023-12-07T11:34:36;96.60;;;41.60;;
57327;SDS011;43162;51.040;18.244;2023-12-07T11:37:06;104.20;;;43.80;;
57327;SDS011;43162;51.040;18.244;2023-12-07T11:39:36;107.50;;;43.20;;
57327;SDS011;43162;51.040;18.244;2023-12-07T11:42:06;128.90;;;48.40;;
57327;SDS011;43162;51.040;18.244;2023-12-07T11:44:33;103.00;;;43.20;;
57327;SDS011;43162;51.040;18.244;2023-12-07T11:47:00;98.80;;;40.90;;
57327;SDS011;43162;51.040;18.244;2023-12-07T11:49:26;98.20;;;41.10;;
57327;SDS011;43162;51.040;18.244;2023-12-07T11:51:53;91.00;;;39.90;;
57327;SDS011;43162;51.040;18.244;2023-12-07T11:54:18;90.50;;;37.00;;
57327;SDS011;43162;51.040;18.244;2023-12-07T11:56:44;102.80;;;41.50;;
57327;SDS011;43162;51.040;18.244;2023-12-07T11:59:10;94.50;;;39.70;;
57327;SDS011;43162;51.040;18.244;2023-12-07T12:01:35;107.70;;;42.80;;
57327;SDS011;43162;51.040;18.244;2023-12-07T12:04:01;107.10;;;40.50;;
57327;SDS011;43162;51.040;18.244;2023-12-07T12:06:27;94.70;;;39.70;;
57327;SDS011;43162;51.040;18.244;2023-12-07T12:08:55;96.50;;;40.80;;
57327;SDS011;43162;51.040;18.244;2023-12-07T12:11:21;114.10;;;44.70;;
57327;SDS011;43162;51.040;18.244;2023-12-07T12:13:46;109.30;;;45.30;;
57327;SDS011;43162;51.040;18.244;2023-12-07T12:16:13;100.50;;;42.10;;
57327;SDS011;43162;51.040;18.244;2023-12-07T12:18:39;107.90;;;44.30;;
57327;SDS011;43162;51.040;18.244;2023-12-07T12:21:06;100.60;;;41.00;;
57327;SDS011;43162;51.040;18.244;2023-12-07T12:23:34;106.80;;;43.60;;
57327;SDS011;43162;51.040;18.244;2023-12-07T12:26:00;108.70;;;43.70;;
57327;SDS011;43162;51.040;18.244;2023-12-07T12:28:25;103.50;;;39.90;;
57327;SDS011;43162;51.040;18.244;2023-12-07T12:30:51;98.20;;;39.90;;
57327;SDS011;43162;51.040;18.244;2023-12-07T12:33:17;107.70;;;43.70;;
57327;SDS011;43162;51.040;18.244;2023-12-07T12:35:42;100.40;;;41.40;;
57327;SDS011;43162;51.040;18.244;2023-12-07T12:38:09;97.70;;;38.60;;
57327;SDS011;43162;51.040;18.244;2023-12-07T12:40:36;101.20;;;38.70;;
57327;SDS011;43162;51.040;18.244;2023-12-07T12:43:01;93.30;;;38.20;;
57327;SDS011;43162;51.040;18.244;2023-12-07T12:45:28;91.70;;;37.60;;
57327;SDS011;43162;51.040;18.244;2023-12-07T12:47:53;88.50;;;35.00;;
57327;SDS011;43162;51.040;18.244;2023-12-07T12:50:39;89.30;;;37.10;;
57327;SDS011;43162;51.040;18.244;2023-12-07T12:53:06;81.80;;;36.60;;
57327;SDS011;43162;51.040;18.244;2023-12-07T12:55:42;90.40;;;37.60;;
57327;SDS011;43162;51.040;18.244;2023-12-07T12:58:08;98.60;;;38.20;;
57327;SDS011;43162;51.040;18.244;2023-12-07T13:00:34;90.30;;;36.10;;
57327;SDS011;43162;51.040;18.244;2023-12-07T13:03:03;91.00;;;35.60;;
57327;SDS011;43162;51.040;18.244;2023-12-07T13:05:30;93.70;;;39.00;;
57327;SDS011;43162;51.040;18.244;2023-12-07T13:07:57;98.00;;;38.40;;
57327;SDS011;43162;51.040;18.244;2023-12-07T13:10:25;92.80;;;38.00;;
57327;SDS011;43162;51.040;18.244;2023-12-07T13:12:51;98.20;;;37.20;;
57327;SDS011;43162;51.040;18.244;2023-12-07T13:15:16;93.30;;;39.70;;
57327;SDS011;43162;51.040;18.244;2023-12-07T13:17:42;102.60;;;37.30;;
57327;SDS011;43162;51.040;18.244;2023-12-07T13:20:08;97.80;;;39.50;;
57327;SDS011;43162;51.040;18.244;2023-12-07T13:22:41;96.50;;;37.80;;
57327;SDS011;43162;51.040;18.244;2023-12-07T13:25:09;93.90;;;39.50;;
57327;SDS011;43162;51.040;18.244;2023-12-07T13:27:34;101.60;;;39.60;;
57327;SDS011;43162;51.040;18.244;2023-12-07T13:30:01;102.20;;;40.60;;
57327;SDS011;43162;51.040;18.244;2023-12-07T13:32:30;94.10;;;39.40;;
57327;SDS011;43162;51.040;18.244;2023-12-07T13:34:58;89.10;;;37.30;;
57327;SDS011;43162;51.040;18.244;2023-12-07T13:37:24;96.20;;;38.50;;
57327;SDS011;43162;51.040;18.244;2023-12-07T13:39:49;105.60;;;40.20;;
57327;SDS011;43162;51.040;18.244;2023-12-07T13:42:21;93.00;;;37.70;;
57327;SDS011;43162;51.040;18.244;2023-12-07T13:44:47;95.10;;;38.10;;
57327;SDS011;43162;51.040;18.244;2023-12-07T13:47:15;95.70;;;39.00;;
57327;SDS011;43162;51.040;18.244;2023-12-07T13:49:42;106.00;;;40.40;;
57327;SDS011;43162;51.040;18.244;2023-12-07T13:52:08;100.70;;;41.50;;
57327;SDS011;43162;51.040;18.244;2023-12-07T13:54:34;115.70;;;41.90;;
57327;SDS011;43162;51.040;18.244;2023-12-07T13:57:01;111.20;;;42.20;;
57327;SDS011;43162;51.040;18.244;2023-12-07T13:59:28;107.60;;;39.50;;
57327;SDS011;43162;51.040;18.244;2023-12-07T14:01:54;93.00;;;38.20;;
57327;SDS011;43162;51.040;18.244;2023-12-07T14:04:20;90.40;;;36.10;;
57327;SDS011;43162;51.040;18.244;2023-12-07T14:06:46;99.60;;;35.30;;
57327;SDS011;43162;51.040;18.244;2023-12-07T14:09:11;100.50;;;36.80;;
57327;SDS011;43162;51.040;18.244;2023-12-07T14:11:37;94.80;;;37.30;;
57327;SDS011;43162;51.040;18.244;2023-12-07T14:14:04;94.50;;;35.90;;